createdAt,value
2018-05-15T00:00:46.434Z,6.83
2018-05-15T00:03:15.359Z,7.47
2018-05-15T00:05:44.323Z,7.37
2018-05-15T00:08:13.195Z,6.00
2018-05-15T00:10:42.097Z,6.83
2018-05-15T00:13:11.066Z,6.47
2018-05-15T00:15:39.982Z,7.80
2018-05-15T00:18:08.873Z,6.33
2018-05-15T00:20:37.812Z,6.57
2018-05-15T00:23:06.708Z,5.33
2018-05-15T00:25:35.668Z,6.20
2018-05-15T00:28:04.763Z,6.67
2018-05-15T00:30:33.654Z,7.90
2018-05-15T00:33:02.561Z,6.73
2018-05-15T00:35:31.520Z,8.17
2018-05-15T00:38:00.429Z,6.87
2018-05-15T00:40:29.362Z,7.70
2018-05-15T00:42:58.324Z,7.60
2018-05-15T00:45:27.264Z,6.63
2018-05-15T00:47:56.281Z,6.90
2018-05-15T00:50:25.257Z,6.17
2018-05-15T00:52:54.190Z,6.93
2018-05-15T00:55:23.262Z,7.33
2018-05-15T00:57:52.359Z,7.83
2018-05-15T01:00:21.242Z,8.03
2018-05-15T01:02:50.145Z,7.00
2018-05-15T01:05:19.110Z,7.57
2018-05-15T01:07:47.999Z,7.50
2018-05-15T01:10:16.904Z,7.33
2018-05-15T01:12:45.883Z,6.83
2018-05-15T01:15:14.783Z,8.93
2018-05-15T01:17:43.706Z,8.60
2018-05-15T01:20:12.655Z,7.73
2018-05-15T01:22:41.570Z,7.53
2018-05-15T01:25:10.453Z,6.17
2018-05-15T01:27:39.395Z,5.60
2018-05-15T01:30:08.277Z,10.23
2018-05-15T01:32:37.169Z,9.27
2018-05-15T01:35:06.138Z,8.80
2018-05-15T01:37:35.053Z,7.80
2018-05-15T01:40:03.982Z,9.00
2018-05-15T01:42:32.919Z,7.97
2018-05-15T01:45:01.811Z,9.53
2018-05-15T01:47:30.751Z,6.70
2018-05-15T01:49:59.701Z,8.93
2018-05-15T01:52:28.584Z,7.63
2018-05-15T01:54:57.489Z,7.20
2018-05-15T01:57:26.532Z,6.90
2018-05-15T01:59:55.443Z,6.40
2018-05-15T02:02:24.344Z,8.17
2018-05-15T02:04:53.264Z,6.70
2018-05-15T02:07:22.161Z,7.67
2018-05-15T02:09:51.182Z,7.43
2018-05-15T02:12:20.203Z,9.57
2018-05-15T02:14:49.128Z,7.63
2018-05-15T02:17:18.039Z,7.10
2018-05-15T02:19:46.998Z,6.13
2018-05-15T02:22:16.956Z,7.43
2018-05-15T02:24:45.870Z,7.43
2018-05-15T02:27:14.826Z,13.77
2018-05-15T02:29:43.842Z,27.27
2018-05-15T02:32:12.760Z,24.97
2018-05-15T02:34:41.729Z,18.23
2018-05-15T02:37:10.648Z,12.60
2018-05-15T02:39:39.529Z,12.63
2018-05-15T02:42:08.472Z,13.20
2018-05-15T02:44:37.381Z,11.37
2018-05-15T02:47:06.308Z,13.17
2018-05-15T02:49:35.249Z,11.20
2018-05-15T02:52:04.161Z,10.93
2018-05-15T02:54:33.064Z,11.00
2018-05-15T02:57:02.019Z,9.70
2018-05-15T02:59:30.902Z,12.37
2018-05-15T03:01:59.836Z,10.37
2018-05-15T03:04:28.794Z,22.37
2018-05-15T03:06:57.699Z,23.30
2018-05-15T03:09:26.629Z,23.43
2018-05-15T03:11:55.581Z,16.93
2018-05-15T03:14:24.591Z,14.23
2018-05-15T03:16:53.519Z,16.13
2018-05-15T03:19:22.560Z,17.33
2018-05-15T03:21:51.553Z,18.27
2018-05-15T03:24:20.439Z,16.93
2018-05-15T03:26:49.400Z,19.17
2018-05-15T03:29:18.301Z,22.83
2018-05-15T03:31:47.323Z,19.97
2018-05-15T03:34:16.260Z,20.37
2018-05-15T03:36:45.189Z,24.00
2018-05-15T03:39:14.205Z,26.17
2018-05-15T03:41:43.189Z,23.43
2018-05-15T03:44:12.386Z,21.83
2018-05-15T03:46:41.291Z,15.43
2018-05-15T03:49:10.270Z,11.87
2018-05-15T03:51:39.187Z,11.93
2018-05-15T03:54:08.139Z,18.57
2018-05-15T03:56:37.084Z,20.53
2018-05-15T03:59:06.020Z,20.40
2018-05-15T04:01:34.933Z,19.50
2018-05-15T04:04:03.908Z,17.63
2018-05-15T04:06:32.798Z,17.90
2018-05-15T04:09:01.704Z,13.73
2018-05-15T04:11:30.686Z,11.50
2018-05-15T04:13:59.635Z,10.70
2018-05-15T04:16:28.552Z,11.00
2018-05-15T04:18:57.532Z,15.60
2018-05-15T04:21:26.453Z,13.57
2018-05-15T04:23:55.405Z,12.93
2018-05-15T04:26:24.383Z,13.30
2018-05-15T04:28:53.321Z,12.30
2018-05-15T04:31:22.323Z,12.13
2018-05-15T04:33:51.301Z,10.07
2018-05-15T04:36:20.266Z,9.47
2018-05-15T04:38:49.204Z,9.87
2018-05-15T04:41:18.177Z,10.23
2018-05-15T04:43:47.296Z,10.03
2018-05-15T04:46:16.229Z,13.20
2018-05-15T04:48:45.298Z,9.23
2018-05-15T04:51:14.214Z,9.53
2018-05-15T04:53:43.358Z,9.87
2018-05-15T04:56:12.380Z,9.63
2018-05-15T04:58:41.373Z,9.90
2018-05-15T05:01:10.949Z,9.23
2018-05-15T05:03:40.050Z,10.00
2018-05-15T05:06:09.184Z,11.73
2018-05-15T05:08:38.150Z,11.13
2018-05-15T05:11:07.181Z,11.83
2018-05-15T05:13:36.146Z,10.47
2018-05-15T05:16:05.109Z,12.90
2018-05-15T05:18:34.388Z,11.00
2018-05-15T05:21:03.462Z,11.53
2018-05-15T05:23:32.499Z,10.80
2018-05-15T05:26:01.497Z,10.13
2018-05-15T05:28:30.544Z,12.23
2018-05-15T05:30:59.490Z,10.77
2018-05-15T05:33:29.564Z,9.90
2018-05-15T05:35:59.385Z,9.47
2018-05-15T05:38:28.803Z,10.67
2018-05-15T05:40:58.492Z,11.23
2018-05-15T05:43:28.525Z,10.97
2018-05-15T05:45:58.123Z,9.13
2018-05-15T05:48:27.744Z,11.90
2018-05-15T05:51:00.575Z,10.57
2018-05-15T05:53:30.314Z,10.77
2018-05-15T05:56:01.564Z,10.97
2018-05-15T05:58:31.374Z,12.17
2018-05-15T06:01:00.772Z,10.83
2018-05-15T06:03:30.180Z,12.23
2018-05-15T06:05:59.572Z,9.80
2018-05-15T06:08:29.603Z,10.13
2018-05-15T06:10:59.205Z,11.03
2018-05-15T06:13:28.707Z,11.37
2018-05-15T06:15:59.133Z,10.77
2018-05-15T06:18:30.567Z,10.00
2018-05-15T06:21:00.675Z,11.53
2018-05-15T06:23:30.420Z,10.70
2018-05-15T06:26:00.944Z,10.47
2018-05-15T06:28:31.264Z,8.80
2018-05-15T06:31:00.976Z,9.63
2018-05-15T06:33:30.689Z,9.93
2018-05-15T06:36:00.292Z,10.50
2018-05-15T06:38:29.864Z,9.73
2018-05-15T06:40:59.930Z,11.43
2018-05-15T06:43:29.610Z,9.97
2018-05-15T06:45:59.344Z,10.37
2018-05-15T06:48:28.950Z,10.20
2018-05-15T06:50:58.580Z,10.97
2018-05-15T06:53:28.364Z,10.70
2018-05-15T06:55:58.475Z,8.20
2018-05-15T06:58:27.885Z,9.67
2018-05-15T07:00:57.570Z,10.87
2018-05-15T07:03:27.331Z,10.20
2018-05-15T07:05:57.109Z,10.40
2018-05-15T07:08:26.606Z,8.63
2018-05-15T07:10:56.220Z,8.87
2018-05-15T07:13:25.725Z,9.10
2018-05-15T07:15:55.537Z,9.40
2018-05-15T07:18:24.938Z,9.67
2018-05-15T07:20:54.342Z,10.33
2018-05-15T07:23:23.740Z,12.07
2018-05-15T07:25:55.190Z,10.27
2018-05-15T07:28:24.581Z,9.67
2018-05-15T07:30:54.201Z,8.27
2018-05-15T07:33:23.919Z,8.73
2018-05-15T07:35:53.520Z,8.67
2018-05-15T07:38:23.330Z,7.83
2018-05-15T07:40:53.051Z,7.80
2018-05-15T07:43:22.955Z,7.17
2018-05-15T07:45:53.071Z,7.10
2018-05-15T07:48:22.661Z,10.07
2018-05-15T07:50:52.188Z,8.97
2018-05-15T07:53:21.894Z,8.20
2018-05-15T07:55:51.911Z,7.20
2018-05-15T07:58:23.565Z,10.07
2018-05-15T08:00:53.067Z,7.90
2018-05-15T08:03:22.674Z,7.93
2018-05-15T08:05:52.488Z,6.83
2018-05-15T08:08:21.888Z,7.17
2018-05-15T08:10:51.393Z,7.03
2018-05-15T08:13:21.000Z,6.93
2018-05-15T08:15:50.403Z,8.73
2018-05-15T08:18:20.121Z,7.20
2018-05-15T08:20:49.930Z,7.93
2018-05-15T08:23:19.851Z,6.33
2018-05-15T08:25:51.089Z,6.97
2018-05-15T08:28:20.902Z,5.47
2018-05-15T08:30:50.415Z,4.83
2018-05-15T08:33:20.008Z,4.43
2018-05-15T08:35:49.922Z,3.53
2018-05-15T08:38:20.151Z,4.17
2018-05-15T08:40:49.871Z,8.43
2018-05-15T08:43:19.357Z,4.67
2018-05-15T08:45:49.068Z,4.93
2018-05-15T08:48:18.682Z,3.87
2018-05-15T08:50:48.798Z,4.87
2018-05-15T08:53:18.710Z,3.73
2018-05-15T08:55:48.413Z,4.10
2018-05-15T08:58:17.927Z,4.40
2018-05-15T09:00:47.323Z,7.33
2018-05-15T09:03:17.032Z,5.57
2018-05-15T09:05:46.657Z,5.83
2018-05-15T09:08:16.244Z,4.77
2018-05-15T09:10:45.956Z,4.93
2018-05-15T09:13:15.459Z,5.50
2018-05-15T09:15:45.072Z,5.67
2018-05-15T09:18:14.597Z,4.03
2018-05-15T09:20:44.291Z,3.90
2018-05-15T09:23:14.110Z,4.80
2018-05-15T09:25:44.518Z,4.70
2018-05-15T09:28:14.431Z,4.53
2018-05-15T09:30:44.036Z,5.37
2018-05-15T09:33:13.643Z,5.00
2018-05-15T09:35:43.170Z,5.47
2018-05-15T09:38:12.990Z,6.07
2018-05-15T09:40:42.489Z,4.73
2018-05-15T09:43:12.417Z,3.63
2018-05-15T09:45:42.197Z,4.23
2018-05-15T09:48:12.426Z,5.03
2018-05-15T09:50:42.237Z,7.70
2018-05-15T09:53:11.738Z,5.33
2018-05-15T09:55:41.347Z,5.20
2018-05-15T09:58:11.145Z,4.87
2018-05-15T10:00:40.756Z,6.33
2018-05-15T10:03:10.364Z,6.50
2018-05-15T10:05:40.097Z,7.60
2018-05-15T10:08:10.086Z,4.80
2018-05-15T10:10:40.525Z,4.73
2018-05-15T10:13:10.025Z,4.93
2018-05-15T10:15:39.617Z,3.87
2018-05-15T10:18:09.025Z,5.03
2018-05-15T10:20:39.464Z,4.73
2018-05-15T10:23:08.966Z,3.70
2018-05-15T10:25:38.884Z,3.60
2018-05-15T10:28:08.485Z,4.20
2018-05-15T10:30:38.197Z,3.40
2018-05-15T10:33:07.905Z,4.27
2018-05-15T10:35:37.405Z,3.37
2018-05-15T10:38:07.336Z,4.27
2018-05-15T10:40:36.937Z,4.43
2018-05-15T10:43:06.878Z,4.27
2018-05-15T10:45:36.345Z,5.10
2018-05-15T10:48:06.365Z,4.97
2018-05-15T10:50:36.285Z,5.27
2018-05-15T10:53:05.897Z,5.07
2018-05-15T10:55:35.386Z,6.13
2018-05-15T10:58:05.505Z,5.03
2018-05-15T11:00:35.017Z,5.20
2018-05-15T11:03:04.725Z,5.30
2018-05-15T11:05:34.437Z,5.10
2018-05-15T11:08:04.461Z,4.90
2018-05-15T11:10:34.365Z,4.17
2018-05-15T11:13:04.065Z,7.03
2018-05-15T11:15:34.216Z,3.77
2018-05-15T11:18:04.925Z,4.10
2018-05-15T11:20:34.637Z,5.67
2018-05-15T11:23:04.557Z,4.70
2018-05-15T11:25:34.269Z,4.33
2018-05-15T11:28:03.965Z,4.37
2018-05-15T11:30:34.657Z,5.40
2018-05-15T11:33:04.617Z,5.97
2018-05-15T11:35:34.982Z,3.43
2018-05-15T11:38:04.744Z,4.20
2018-05-15T11:40:34.361Z,3.73
2018-05-15T11:43:04.477Z,4.50
2018-05-15T11:45:34.316Z,4.67
2018-05-15T11:48:04.321Z,4.00
2018-05-15T11:50:34.766Z,4.33
2018-05-15T11:53:04.615Z,6.60
2018-05-15T11:55:35.296Z,4.63
2018-05-15T11:58:04.034Z,4.63
2018-05-15T12:00:33.755Z,4.40
2018-05-15T12:03:03.488Z,5.17
2018-05-15T12:05:33.516Z,5.47
2018-05-15T12:08:03.594Z,5.50
2018-05-15T12:10:33.648Z,5.63
2018-05-15T12:13:03.977Z,5.53
2018-05-15T12:15:33.578Z,6.90
2018-05-15T12:18:03.365Z,5.77
2018-05-15T12:20:33.285Z,6.37
2018-05-15T12:23:03.005Z,6.60
2018-05-15T12:25:32.918Z,5.53
2018-05-15T12:28:02.814Z,5.87
2018-05-15T12:30:32.538Z,6.10
2018-05-15T12:33:02.445Z,6.20
2018-05-15T12:35:32.267Z,6.40
2018-05-15T12:38:02.487Z,7.10
2018-05-15T12:40:32.198Z,8.57
2018-05-15T12:43:01.811Z,9.33
2018-05-15T12:45:31.518Z,9.63
2018-05-15T12:48:01.085Z,10.40
2018-05-15T12:50:30.825Z,9.53
2018-05-15T12:53:00.725Z,9.23
2018-05-15T12:55:31.377Z,10.43
2018-05-15T12:58:01.707Z,9.37
2018-05-15T13:00:31.417Z,8.10
2018-05-15T13:03:01.425Z,8.57
2018-05-15T13:05:31.137Z,9.40
2018-05-15T13:08:00.857Z,11.30
2018-05-15T13:10:30.857Z,11.30
2018-05-15T13:13:00.465Z,11.83
2018-05-15T13:15:30.501Z,11.23
2018-05-15T13:18:01.216Z,11.40
2018-05-15T13:20:31.525Z,11.77
2018-05-15T13:23:01.990Z,11.87
2018-05-15T13:25:31.876Z,11.03
2018-05-15T13:28:02.205Z,9.73
2018-05-15T13:30:32.516Z,9.47
2018-05-15T13:33:02.564Z,10.50
2018-05-15T13:35:32.476Z,11.03
2018-05-15T13:38:01.956Z,10.50
2018-05-15T13:40:32.793Z,10.53
2018-05-15T13:43:07.936Z,13.70
2018-05-15T13:45:38.597Z,13.53
2018-05-15T13:50:46.370Z,13.30
2018-05-15T13:53:18.353Z,11.63
2018-05-15T13:55:48.967Z,10.07
2018-05-15T13:58:20.337Z,11.30
2018-05-15T14:00:51.867Z,10.17
2018-05-15T14:03:21.817Z,9.53
2018-05-15T14:05:51.576Z,9.57
2018-05-15T14:08:21.744Z,9.80
2018-05-15T14:10:51.857Z,10.00
2018-05-15T14:13:21.457Z,9.20
2018-05-15T14:15:50.944Z,9.77
2018-05-15T14:18:20.856Z,8.00
2018-05-15T14:20:50.497Z,7.47
2018-05-15T14:23:20.197Z,7.97
2018-05-15T14:25:50.001Z,8.17
2018-05-15T14:28:19.796Z,8.10
2018-05-15T14:30:50.036Z,8.83
2018-05-15T14:33:19.837Z,8.10
2018-05-15T14:35:49.577Z,7.17
2018-05-15T14:38:19.456Z,5.10
2018-05-15T14:40:48.956Z,6.20
2018-05-15T14:43:18.357Z,5.70
2018-05-15T14:45:47.864Z,6.67
2018-05-15T14:48:17.477Z,6.23
2018-05-15T14:50:47.282Z,4.77
2018-05-15T14:53:17.108Z,6.07
2018-05-15T14:55:47.026Z,5.20
2018-05-15T14:58:16.938Z,5.43
2018-05-15T15:00:46.532Z,5.90
2018-05-15T15:03:16.037Z,7.23
2018-05-15T15:05:47.885Z,6.47
2018-05-15T15:08:17.717Z,5.10
2018-05-15T15:10:47.565Z,5.00
2018-05-15T15:13:17.445Z,5.13
2018-05-15T15:15:47.384Z,5.40
2018-05-15T15:18:17.062Z,5.87
2018-05-15T15:20:46.876Z,7.27
2018-05-15T15:23:16.477Z,6.03
2018-05-15T15:25:45.975Z,6.13
2018-05-15T15:28:16.017Z,4.83
2018-05-15T15:30:45.904Z,5.37
2018-05-15T15:33:15.736Z,5.33
2018-05-15T15:35:45.456Z,5.50
2018-05-15T15:38:15.045Z,5.83
2018-05-15T15:40:44.757Z,5.60
2018-05-15T15:43:14.476Z,5.73
2018-05-15T15:45:44.680Z,6.53
2018-05-15T15:48:18.076Z,5.70
2018-05-15T15:50:47.816Z,7.00
2018-05-15T15:53:17.937Z,5.70
2018-05-15T15:55:48.147Z,5.43
2018-05-15T15:58:17.856Z,5.27
2018-05-15T16:00:47.577Z,5.53
2018-05-15T16:03:17.777Z,6.70
2018-05-15T16:05:47.496Z,5.90
2018-05-15T16:08:16.979Z,8.07
2018-05-15T16:10:46.819Z,6.67
2018-05-15T16:13:16.937Z,7.43
2018-05-15T16:15:46.936Z,6.40
2018-05-15T16:18:16.753Z,6.10
2018-05-15T16:20:46.456Z,7.37
2018-05-15T16:23:16.084Z,7.83
2018-05-15T16:25:45.637Z,7.40
2018-05-15T16:28:15.497Z,10.07
2018-05-15T16:30:44.978Z,9.17
2018-05-15T16:33:14.808Z,7.70
2018-05-15T16:35:44.416Z,6.97
2018-05-15T16:38:14.197Z,6.53
2018-05-15T16:40:44.036Z,7.80
2018-05-15T16:43:13.723Z,6.77
2018-05-15T16:45:43.437Z,6.30
2018-05-15T16:48:12.936Z,7.10
2018-05-15T16:50:42.545Z,6.40
2018-05-15T16:53:12.777Z,7.90
2018-05-15T16:55:45.544Z,6.93
2018-05-15T16:58:15.056Z,6.33
2018-05-15T17:00:44.764Z,9.40
2018-05-15T17:03:14.796Z,8.90
2018-05-15T17:05:44.596Z,8.60
2018-05-15T17:08:14.356Z,9.33
2018-05-15T17:10:44.204Z,8.67
2018-05-15T17:13:13.928Z,8.60
2018-05-15T17:15:45.064Z,8.67
2018-05-15T17:18:14.683Z,9.00
2018-05-15T17:20:44.283Z,8.03
2018-05-15T17:23:14.084Z,9.70
2018-05-15T17:25:44.276Z,10.93
2018-05-15T17:28:13.815Z,9.87
2018-05-15T17:30:43.457Z,10.23
2018-05-15T17:33:13.023Z,9.67
2018-05-15T17:35:42.656Z,10.30
2018-05-15T17:38:12.444Z,10.20
2018-05-15T17:40:42.567Z,10.30
2018-05-15T17:43:11.995Z,10.50
2018-05-15T17:45:44.148Z,11.00
2018-05-15T17:48:14.564Z,11.27
2018-05-15T17:50:43.976Z,9.83
2018-05-15T17:53:13.896Z,11.03
2018-05-15T17:55:43.688Z,10.97
2018-05-15T17:58:13.499Z,9.63
2018-05-15T18:00:43.215Z,11.13
2018-05-15T18:03:13.320Z,9.53
2018-05-15T18:05:43.175Z,10.30
2018-05-15T18:08:14.122Z,10.50
2018-05-15T18:10:43.879Z,12.73
2018-05-15T18:13:15.855Z,10.27
2018-05-15T18:15:45.577Z,12.03
2018-05-15T18:18:15.396Z,11.13
2018-05-15T18:20:45.286Z,14.93
2018-05-15T18:23:14.915Z,14.63
2018-05-15T18:25:44.704Z,14.63
2018-05-15T18:28:14.624Z,12.97
2018-05-15T18:30:44.945Z,12.50
2018-05-15T18:33:14.828Z,13.03
2018-05-15T18:35:44.489Z,12.93
2018-05-15T18:38:14.516Z,12.90
2018-05-15T18:40:44.195Z,11.30
2018-05-15T18:43:14.208Z,14.90
2018-05-15T18:45:44.313Z,12.30
2018-05-15T18:48:16.517Z,11.17
2018-05-15T18:50:46.304Z,13.20
2018-05-15T18:53:18.880Z,12.37
2018-05-15T18:55:48.817Z,13.40
2018-05-15T18:58:18.706Z,11.37
2018-05-15T19:00:48.841Z,10.63
2018-05-15T19:03:20.286Z,10.93
2018-05-15T19:05:49.973Z,11.50
2018-05-15T19:08:20.417Z,12.40
2018-05-15T19:10:51.143Z,11.40
2018-05-15T19:13:20.957Z,11.40
2018-05-15T19:15:50.564Z,11.57
2018-05-15T19:18:20.495Z,11.30
2018-05-15T19:20:50.196Z,11.93
2018-05-15T19:23:20.925Z,13.73
2018-05-15T19:25:51.064Z,13.60
2018-05-15T19:28:24.117Z,14.57
2018-05-15T19:30:53.844Z,11.13
2018-05-15T19:33:23.513Z,11.90
2018-05-15T19:35:54.284Z,10.57
2018-05-15T19:38:24.917Z,10.30
2018-05-15T19:40:57.604Z,11.77
2018-05-15T19:43:30.397Z,11.73
2018-05-15T19:46:00.418Z,11.40
2018-05-15T19:48:30.305Z,11.97
2018-05-15T19:51:01.041Z,15.17
2018-05-15T19:53:30.865Z,11.83
2018-05-15T19:56:00.760Z,11.00
2018-05-15T19:58:31.797Z,11.27
2018-05-15T20:01:01.407Z,10.97
2018-05-15T20:03:32.345Z,11.93
2018-05-15T20:06:02.266Z,10.93
2018-05-15T20:08:31.766Z,10.80
2018-05-15T20:11:01.373Z,11.23
2018-05-15T20:13:30.973Z,12.73
2018-05-15T20:16:00.784Z,13.93
2018-05-15T20:18:30.565Z,12.00
2018-05-15T20:21:00.397Z,10.57
2018-05-15T20:23:29.915Z,11.07
2018-05-15T20:26:00.565Z,13.67
2018-05-15T20:28:30.365Z,11.13
2018-05-15T20:30:59.965Z,10.73
2018-05-15T20:33:29.365Z,10.93
2018-05-15T20:35:59.286Z,10.67
2018-05-15T20:38:29.197Z,12.87
2018-05-15T20:40:59.104Z,11.00
2018-05-15T20:43:28.616Z,11.60
2018-05-15T20:45:58.325Z,12.27
2018-05-15T20:48:27.936Z,12.00
2018-05-15T20:50:57.432Z,12.73
2018-05-15T20:53:27.044Z,12.73
2018-05-15T20:55:56.864Z,13.43
2018-05-15T20:58:26.465Z,11.93
2018-05-15T21:00:55.964Z,12.90
2018-05-15T21:03:25.508Z,11.47
2018-05-15T21:05:55.384Z,11.93
2018-05-15T21:08:25.906Z,11.57
2018-05-15T21:10:55.542Z,12.10
2018-05-15T21:13:25.020Z,11.57
2018-05-15T21:15:55.864Z,11.27
2018-05-15T21:18:25.485Z,11.47
2018-05-15T21:20:54.969Z,12.97
2018-05-15T21:23:24.585Z,13.80
2018-05-15T21:25:54.197Z,12.43
2018-05-15T21:28:24.114Z,13.90
2018-05-15T21:30:53.911Z,16.33
2018-05-15T21:33:23.416Z,15.30
2018-05-15T21:35:53.024Z,15.63
2018-05-15T21:38:22.930Z,14.43
2018-05-15T21:40:52.550Z,15.93
2018-05-15T21:43:21.941Z,14.33
2018-05-15T21:45:51.349Z,14.80
2018-05-15T21:48:20.641Z,13.43
2018-05-15T21:50:50.455Z,14.47
2018-05-15T21:53:19.961Z,16.30
2018-05-15T21:55:49.360Z,14.57
2018-05-15T21:58:18.968Z,13.83
2018-05-15T22:00:48.676Z,15.23
2018-05-15T22:03:18.185Z,15.77
2018-05-15T22:05:47.890Z,17.13
2018-05-15T22:08:17.525Z,15.30
2018-05-15T22:10:47.209Z,16.30
2018-05-15T22:13:17.019Z,15.00
2018-05-15T22:15:46.860Z,15.43
2018-05-15T22:18:16.742Z,17.53
2018-05-15T22:20:46.356Z,15.70
2018-05-15T22:23:16.061Z,15.53
2018-05-15T22:25:45.468Z,16.90
2018-05-15T22:28:14.966Z,18.03
2018-05-15T22:30:44.493Z,15.57
2018-05-15T22:33:14.084Z,16.97
2018-05-15T22:35:44.816Z,17.73
2018-05-15T22:38:14.536Z,17.17
2018-05-15T22:40:44.145Z,14.37
2018-05-15T22:43:13.743Z,17.43
2018-05-15T22:45:43.465Z,16.40
2018-05-15T22:48:13.061Z,17.17
2018-05-15T22:50:42.574Z,16.87
2018-05-15T22:53:12.072Z,17.03
2018-05-15T22:55:41.684Z,16.97
2018-05-15T22:58:11.094Z,17.20
2018-05-15T23:00:40.581Z,15.37
2018-05-15T23:03:10.180Z,18.23
2018-05-15T23:05:39.689Z,16.73
2018-05-15T23:08:09.413Z,17.33
2018-05-15T23:10:38.997Z,19.03
2018-05-15T23:13:08.753Z,15.07
2018-05-15T23:15:38.477Z,17.37
2018-05-15T23:18:08.443Z,16.57
2018-05-15T23:20:37.940Z,18.10
2018-05-15T23:23:07.454Z,16.97
2018-05-15T23:25:37.050Z,16.07
2018-05-15T23:28:06.552Z,17.43
2018-05-15T23:30:36.060Z,18.33
2018-05-15T23:33:05.566Z,18.20
2018-05-15T23:35:34.974Z,21.00
2018-05-15T23:38:04.507Z,19.30
2018-05-15T23:40:34.287Z,18.07
2018-05-15T23:43:03.788Z,18.00
2018-05-15T23:45:33.393Z,16.60
2018-05-15T23:48:03.121Z,17.87
2018-05-15T23:50:32.812Z,18.63
2018-05-15T23:53:02.534Z,18.20
2018-05-15T23:55:32.065Z,16.43
2018-05-15T23:58:01.756Z,17.83
